createdAt,value
2019-03-09T00:00:55.774Z,4.50
2019-03-09T00:03:31.070Z,4.60
2019-03-09T00:05:59.754Z,4.60
2019-03-09T00:08:28.467Z,4.70
2019-03-09T00:11:03.999Z,4.70
2019-03-09T00:13:32.717Z,4.70
2019-03-09T00:16:01.496Z,4.70
2019-03-09T00:18:37.059Z,4.70
2019-03-09T00:21:06.023Z,4.60
2019-03-09T00:24:09.445Z,4.60
2019-03-09T00:26:52.019Z,4.60
2019-03-09T00:29:52.663Z,4.50
2019-03-09T00:32:23.569Z,4.40
2019-03-09T00:34:52.279Z,4.50
2019-03-09T00:37:27.445Z,4.50
2019-03-09T00:39:56.109Z,4.40
2019-03-09T00:42:24.818Z,4.40
2019-03-09T00:45:00.770Z,4.40
2019-03-09T00:47:36.336Z,4.30
2019-03-09T00:50:12.440Z,4.30
2019-03-09T00:52:41.128Z,4.40
2019-03-09T00:55:10.904Z,4.40
2019-03-09T00:57:45.799Z,4.40
2019-03-09T01:00:17.316Z,4.50
2019-03-09T01:02:46.047Z,4.50
2019-03-09T01:05:22.443Z,4.50
2019-03-09T01:07:51.217Z,4.50
2019-03-09T01:10:19.919Z,4.60
2019-03-09T01:12:55.278Z,4.60
2019-03-09T01:15:23.981Z,4.70
2019-03-09T01:17:52.697Z,4.70
2019-03-09T01:20:28.455Z,4.60
2019-03-09T01:22:57.180Z,4.70
2019-03-09T01:25:25.925Z,4.70
2019-03-09T01:28:01.211Z,4.70
2019-03-09T01:30:29.996Z,4.70
2019-03-09T01:32:58.725Z,4.60
2019-03-09T01:35:33.717Z,4.60
2019-03-09T01:38:02.407Z,4.60
2019-03-09T01:40:31.187Z,4.60
2019-03-09T01:43:06.508Z,4.60
2019-03-09T01:45:41.656Z,4.60
2019-03-09T01:48:23.461Z,4.70
2019-03-09T01:50:52.151Z,4.70
2019-03-09T01:53:20.875Z,4.70
2019-03-09T01:55:56.550Z,4.70
2019-03-09T01:58:25.243Z,4.70
2019-03-09T02:00:53.948Z,4.70
2019-03-09T02:03:30.037Z,4.80
2019-03-09T02:05:58.815Z,4.80
2019-03-09T02:08:27.569Z,4.80
2019-03-09T02:11:02.874Z,4.80
2019-03-09T02:13:31.581Z,4.80
2019-03-09T02:16:00.348Z,4.70
2019-03-09T02:18:35.385Z,4.80
2019-03-09T02:21:04.137Z,4.80
2019-03-09T02:23:32.821Z,4.90
2019-03-09T02:26:08.773Z,4.90
2019-03-09T02:28:37.542Z,4.90
2019-03-09T02:31:06.272Z,5.00
2019-03-09T02:33:41.932Z,4.90
2019-03-09T02:36:10.619Z,4.80
2019-03-09T02:38:54.475Z,4.90
2019-03-09T02:41:23.199Z,4.90
2019-03-09T02:43:51.984Z,5.00
2019-03-09T02:46:27.285Z,4.90
2019-03-09T02:49:09.227Z,5.10
2019-03-09T02:51:44.456Z,5.10
2019-03-09T02:54:13.163Z,5.10
2019-03-09T02:56:41.858Z,5.20
2019-03-09T02:59:17.382Z,5.20
2019-03-09T03:02:05.353Z,5.10
2019-03-09T03:04:40.904Z,5.20
2019-03-09T03:07:09.584Z,5.20
2019-03-09T03:09:38.267Z,5.20
2019-03-09T03:12:13.984Z,5.20
2019-03-09T03:14:42.712Z,5.30
2019-03-09T03:17:11.421Z,5.30
2019-03-09T03:19:46.204Z,5.20
2019-03-09T03:22:14.969Z,5.30
2019-03-09T03:24:43.744Z,5.30
2019-03-09T03:27:18.684Z,5.40
2019-03-09T03:29:47.414Z,5.40
2019-03-09T03:32:16.195Z,5.40
2019-03-09T03:34:51.911Z,5.40
2019-03-09T03:37:21.428Z,5.40
2019-03-09T03:39:50.826Z,5.40
2019-03-09T03:42:26.142Z,5.40
2019-03-09T03:44:54.923Z,5.40
2019-03-09T03:47:42.713Z,5.50
2019-03-09T03:50:18.285Z,5.40
2019-03-09T03:52:53.646Z,5.40
2019-03-09T03:55:23.177Z,5.50
2019-03-09T03:57:52.031Z,5.40
2019-03-09T04:00:27.556Z,5.40
2019-03-09T04:02:56.278Z,5.40
2019-03-09T04:05:24.989Z,5.40
2019-03-09T04:08:00.285Z,5.50
2019-03-09T04:10:29.130Z,5.60
2019-03-09T04:12:58.489Z,5.60
2019-03-09T04:15:33.975Z,5.60
2019-03-09T04:18:02.695Z,5.60
2019-03-09T04:20:31.351Z,5.70
2019-03-09T04:23:06.868Z,5.70
2019-03-09T04:25:35.576Z,5.70
2019-03-09T04:28:04.358Z,5.70
2019-03-09T04:30:39.686Z,5.70
2019-03-09T04:33:08.484Z,5.70
2019-03-09T04:35:37.207Z,5.60
2019-03-09T04:38:13.092Z,5.60
2019-03-09T04:40:41.798Z,5.60
2019-03-09T04:43:10.536Z,5.60
2019-03-09T04:45:45.797Z,5.60
2019-03-09T04:48:20.814Z,5.70
2019-03-09T04:51:03.374Z,5.70
2019-03-09T04:53:32.062Z,5.80
2019-03-09T04:56:00.766Z,5.70
2019-03-09T04:58:36.403Z,5.80
2019-03-09T05:01:05.101Z,5.90
2019-03-09T05:03:33.786Z,5.90
2019-03-09T05:06:09.449Z,6.00
2019-03-09T05:09:21.579Z,6.00
2019-03-09T05:11:56.942Z,5.90
2019-03-09T05:14:26.345Z,6.10
2019-03-09T05:16:55.070Z,6.10
2019-03-09T05:19:30.939Z,6.10
2019-03-09T05:21:59.670Z,6.10
2019-03-09T05:24:28.365Z,6.00
2019-03-09T05:27:03.432Z,6.00
2019-03-09T05:29:32.151Z,6.00
2019-03-09T05:32:00.901Z,5.90
2019-03-09T05:34:36.646Z,5.90
2019-03-09T05:37:05.382Z,5.90
2019-03-09T05:39:34.120Z,5.90
2019-03-09T05:42:09.640Z,6.00
2019-03-09T05:44:38.643Z,6.00
2019-03-09T05:47:20.872Z,5.90
2019-03-09T05:49:56.482Z,5.90
2019-03-09T05:52:40.019Z,5.90
2019-03-09T05:55:17.028Z,5.90
2019-03-09T05:57:52.480Z,5.90
2019-03-09T06:00:21.228Z,5.80
2019-03-09T06:02:50.282Z,5.80
2019-03-09T06:05:53.961Z,5.90
2019-03-09T06:08:22.699Z,5.90
2019-03-09T06:10:51.473Z,5.80
2019-03-09T06:13:26.723Z,5.80
2019-03-09T06:15:55.521Z,5.80
2019-03-09T06:18:24.302Z,5.80
2019-03-09T06:20:59.144Z,5.80
2019-03-09T06:23:27.852Z,5.70
2019-03-09T06:25:56.601Z,5.60
2019-03-09T06:28:31.812Z,5.60
2019-03-09T06:31:00.532Z,5.60
2019-03-09T06:33:31.203Z,5.50
2019-03-09T06:36:43.771Z,5.50
2019-03-09T06:39:30.035Z,5.60
2019-03-09T06:42:16.682Z,5.60
2019-03-09T06:44:45.400Z,5.50
2019-03-09T06:47:27.440Z,5.50
2019-03-09T06:50:02.823Z,5.50
2019-03-09T06:52:37.621Z,5.50
2019-03-09T06:55:13.818Z,5.50
2019-03-09T06:57:49.587Z,5.40
2019-03-09T07:00:30.460Z,5.50
2019-03-09T07:03:06.347Z,5.40
2019-03-09T07:05:35.187Z,5.40
2019-03-09T07:08:04.592Z,5.40
2019-03-09T07:10:39.598Z,5.40
2019-03-09T07:13:08.352Z,5.40
2019-03-09T07:15:39.291Z,5.40
2019-03-09T07:18:17.311Z,5.40
2019-03-09T07:20:46.351Z,5.40
2019-03-09T07:23:15.113Z,5.40
2019-03-09T07:25:50.508Z,5.40
2019-03-09T07:28:19.291Z,5.40
2019-03-09T07:30:48.111Z,5.50
2019-03-09T07:33:23.338Z,5.50
2019-03-09T07:35:52.079Z,5.50
2019-03-09T07:38:20.796Z,5.50
2019-03-09T07:40:57.176Z,5.50
2019-03-09T07:43:25.920Z,5.60
2019-03-09T07:45:54.733Z,5.60
2019-03-09T07:48:29.740Z,5.70
2019-03-09T07:51:05.218Z,5.70
2019-03-09T07:53:40.116Z,5.80
2019-03-09T07:56:15.822Z,5.70
2019-03-09T07:58:51.718Z,5.70
2019-03-09T08:01:20.756Z,5.80
2019-03-09T08:03:49.523Z,5.90
2019-03-09T08:06:24.893Z,6.00
2019-03-09T08:08:53.667Z,6.00
2019-03-09T08:11:22.793Z,6.10
2019-03-09T08:13:58.409Z,6.20
2019-03-09T08:16:35.481Z,6.20
2019-03-09T08:18:57.551Z,6.30
2019-03-09T08:21:33.110Z,6.30
2019-03-09T08:24:01.861Z,6.30
2019-03-09T08:26:30.665Z,6.40
2019-03-09T08:29:05.978Z,6.50
2019-03-09T08:31:35.179Z,6.60
2019-03-09T08:34:04.093Z,6.60
2019-03-09T08:36:39.548Z,6.80
2019-03-09T08:39:08.425Z,7.00
2019-03-09T08:41:37.244Z,7.10
2019-03-09T08:44:12.987Z,7.20
2019-03-09T08:46:41.710Z,7.20
2019-03-09T08:49:23.047Z,7.30
2019-03-09T08:51:58.005Z,7.40
2019-03-09T08:54:33.396Z,7.40
2019-03-09T08:57:08.995Z,7.40
2019-03-09T08:59:44.682Z,7.40
2019-03-09T09:02:13.470Z,7.50
2019-03-09T09:04:42.229Z,7.40
2019-03-09T09:07:17.420Z,7.40
2019-03-09T09:09:46.288Z,7.90
2019-03-09T09:12:15.819Z,8.20
2019-03-09T09:14:51.165Z,8.50
2019-03-09T09:17:19.904Z,8.60
2019-03-09T09:19:48.611Z,8.80
2019-03-09T09:22:24.176Z,9.00
2019-03-09T09:24:52.904Z,9.20
2019-03-09T09:27:22.475Z,9.40
2019-03-09T09:29:57.374Z,9.30
2019-03-09T09:32:26.066Z,9.60
2019-03-09T09:34:55.311Z,9.50
2019-03-09T09:37:31.165Z,9.40
2019-03-09T09:39:59.881Z,9.20
2019-03-09T09:42:28.728Z,9.10
2019-03-09T09:45:03.949Z,9.40
2019-03-09T09:47:33.780Z,9.70
2019-03-09T09:50:15.985Z,9.60
2019-03-09T09:52:51.367Z,9.60
2019-03-09T09:55:26.308Z,9.70
2019-03-09T09:58:01.876Z,9.90
2019-03-09T10:00:37.449Z,9.70
2019-03-09T10:03:06.183Z,9.90
2019-03-09T10:05:34.903Z,10.20
2019-03-09T10:08:10.014Z,10.50
2019-03-09T10:10:38.716Z,10.50
2019-03-09T10:13:07.432Z,10.30
2019-03-09T10:15:43.376Z,10.30
2019-03-09T10:18:12.096Z,10.10
2019-03-09T10:20:41.023Z,9.90
2019-03-09T10:23:16.702Z,10.00
2019-03-09T10:25:45.372Z,10.00
2019-03-09T10:28:14.093Z,10.00
2019-03-09T10:31:09.138Z,10.10
2019-03-09T10:33:44.579Z,10.20
2019-03-09T10:36:19.723Z,10.10
2019-03-09T10:38:48.496Z,9.90
2019-03-09T10:41:17.292Z,9.80
2019-03-09T10:43:52.185Z,10.10
2019-03-09T10:46:20.995Z,9.90
2019-03-09T10:48:49.982Z,10.00
2019-03-09T10:51:25.202Z,9.90
2019-03-09T10:53:53.884Z,9.80
2019-03-09T10:56:22.687Z,9.70
2019-03-09T10:59:05.031Z,9.70
2019-03-09T11:01:33.739Z,9.60
2019-03-09T11:04:02.446Z,9.80
2019-03-09T11:06:37.444Z,9.80
2019-03-09T11:09:07.203Z,9.90
2019-03-09T11:11:35.899Z,9.90
2019-03-09T11:14:11.044Z,10.00
2019-03-09T11:16:39.739Z,10.00
2019-03-09T11:19:08.554Z,9.80
2019-03-09T11:21:44.200Z,9.70
2019-03-09T11:24:12.965Z,9.70
2019-03-09T11:26:41.722Z,9.90
2019-03-09T11:29:18.473Z,10.00
2019-03-09T11:31:53.401Z,10.10
2019-03-09T11:34:35.568Z,10.10
2019-03-09T11:37:04.400Z,10.20
2019-03-09T11:39:33.149Z,10.20
2019-03-09T11:42:14.867Z,10.30
2019-03-09T11:44:44.433Z,10.40
2019-03-09T11:47:13.206Z,10.60
2019-03-09T11:49:49.000Z,10.90
2019-03-09T11:52:20.384Z,11.10
2019-03-09T11:54:48.530Z,10.90
2019-03-09T11:57:24.340Z,11.00
2019-03-09T12:00:00.137Z,10.90
2019-03-09T12:02:38.821Z,10.90
2019-03-09T12:05:06.713Z,10.70
2019-03-09T12:07:35.508Z,10.70
2019-03-09T12:10:10.570Z,11.20
2019-03-09T12:12:39.385Z,11.30
2019-03-09T12:15:08.831Z,11.00
2019-03-09T12:17:45.601Z,10.90
2019-03-09T12:20:15.708Z,10.90
2019-03-09T12:22:44.459Z,10.80
2019-03-09T12:25:20.712Z,10.70
2019-03-09T12:27:49.491Z,10.80
2019-03-09T12:30:18.663Z,10.60
2019-03-09T12:32:53.764Z,10.50
2019-03-09T12:35:28.894Z,10.50
2019-03-09T12:38:04.725Z,11.00
2019-03-09T12:40:33.621Z,11.00
2019-03-09T12:43:02.499Z,11.10
2019-03-09T12:45:37.820Z,11.00
2019-03-09T12:48:06.535Z,11.00
2019-03-09T12:50:35.266Z,11.20
2019-03-09T12:53:11.061Z,11.00
2019-03-09T12:55:39.905Z,11.10
2019-03-09T12:58:08.653Z,11.30
2019-03-09T13:00:50.410Z,11.80
2019-03-09T13:03:19.159Z,11.90
2019-03-09T13:05:47.857Z,11.80
2019-03-09T13:08:23.680Z,11.80
2019-03-09T13:10:52.401Z,11.80
2019-03-09T13:13:21.098Z,11.80
2019-03-09T13:15:56.008Z,11.80
2019-03-09T13:18:24.703Z,11.50
2019-03-09T13:20:53.402Z,11.50
2019-03-09T13:23:29.199Z,11.50
2019-03-09T13:25:57.912Z,11.80
2019-03-09T13:28:26.649Z,11.80
2019-03-09T13:31:01.475Z,11.80
2019-03-09T13:33:36.388Z,11.60
2019-03-09T13:36:18.325Z,11.70
2019-03-09T13:38:47.019Z,11.60
2019-03-09T13:41:15.718Z,11.80
2019-03-09T13:43:51.561Z,11.80
2019-03-09T13:46:21.613Z,11.80
2019-03-09T13:48:50.350Z,11.70
2019-03-09T13:51:25.758Z,11.50
2019-03-09T13:53:54.454Z,11.30
2019-03-09T13:56:23.247Z,11.20
2019-03-09T13:58:58.804Z,11.20
2019-03-09T14:01:34.343Z,11.20
2019-03-09T14:04:09.933Z,11.30
2019-03-09T14:06:38.633Z,11.20
2019-03-09T14:09:07.793Z,11.20
2019-03-09T14:11:43.610Z,11.20
2019-03-09T14:14:12.328Z,11.20
2019-03-09T14:16:41.037Z,11.40
2019-03-09T14:19:16.623Z,11.60
2019-03-09T14:21:45.343Z,11.60
2019-03-09T14:24:14.314Z,11.50
2019-03-09T14:26:49.528Z,11.40
2019-03-09T14:29:18.249Z,11.50
2019-03-09T14:31:46.951Z,11.40
2019-03-09T14:34:22.368Z,11.30
2019-03-09T14:36:57.655Z,11.30
2019-03-09T14:39:32.816Z,11.20
2019-03-09T14:42:01.531Z,11.20
2019-03-09T14:44:30.281Z,11.20
2019-03-09T14:47:05.892Z,11.20
2019-03-09T14:49:34.621Z,11.20
2019-03-09T14:52:03.616Z,11.30
2019-03-09T14:54:39.227Z,11.50
2019-03-09T14:57:07.960Z,11.50
2019-03-09T14:59:36.696Z,11.70
2019-03-09T15:02:12.494Z,11.60
2019-03-09T15:04:47.975Z,11.50
2019-03-09T15:07:25.894Z,11.40
2019-03-09T15:09:54.611Z,11.40
2019-03-09T15:12:23.361Z,11.30
2019-03-09T15:14:58.751Z,11.30
2019-03-09T15:17:27.454Z,11.30
2019-03-09T15:19:56.457Z,11.30
2019-03-09T15:22:32.023Z,11.40
2019-03-09T15:25:00.754Z,11.30
2019-03-09T15:27:29.462Z,11.30
2019-03-09T15:30:11.102Z,11.20
2019-03-09T15:32:39.829Z,11.00
2019-03-09T15:35:28.901Z,10.90
2019-03-09T15:37:57.947Z,10.80
2019-03-09T15:40:26.797Z,10.80
2019-03-09T15:43:02.298Z,10.70
2019-03-09T15:45:30.981Z,10.60
2019-03-09T15:47:59.661Z,10.60
2019-03-09T15:50:34.909Z,10.50
2019-03-09T15:53:03.596Z,10.50
2019-03-09T15:55:32.391Z,10.40
2019-03-09T15:58:07.907Z,10.30
2019-03-09T16:00:36.949Z,10.20
2019-03-09T16:03:05.928Z,10.20
2019-03-09T16:05:47.624Z,10.20
2019-03-09T16:08:16.375Z,10.10
2019-03-09T16:10:45.111Z,10.10
2019-03-09T16:13:20.721Z,10.10
2019-03-09T16:15:49.433Z,10.00
2019-03-09T16:18:18.162Z,10.00
2019-03-09T16:20:53.259Z,9.30
2019-03-09T16:23:21.963Z,9.10
2019-03-09T16:25:50.771Z,9.00
2019-03-09T16:28:25.758Z,8.90
2019-03-09T16:30:54.445Z,8.60
2019-03-09T16:33:23.143Z,8.40
2019-03-09T16:35:58.027Z,8.30
2019-03-09T16:38:33.324Z,7.90
2019-03-09T16:41:08.584Z,7.70
2019-03-09T16:43:37.684Z,7.50
2019-03-09T16:46:06.439Z,7.40
2019-03-09T16:48:41.178Z,7.40
2019-03-09T16:51:09.883Z,7.20
2019-03-09T16:53:38.576Z,7.20
2019-03-09T16:56:13.809Z,7.10
2019-03-09T16:58:42.515Z,7.10
2019-03-09T17:01:11.235Z,7.00
2019-03-09T17:03:45.994Z,6.90
2019-03-09T17:06:14.691Z,6.80
2019-03-09T17:08:57.146Z,6.70
2019-03-09T17:11:25.884Z,6.60
2019-03-09T17:13:54.569Z,6.60
2019-03-09T17:16:30.069Z,6.50
2019-03-09T17:18:59.040Z,6.50
2019-03-09T17:21:27.749Z,6.50
2019-03-09T17:24:02.933Z,6.40
2019-03-09T17:26:31.669Z,6.40
2019-03-09T17:29:00.438Z,6.40
2019-03-09T17:31:35.983Z,6.40
2019-03-09T17:34:04.716Z,6.40
2019-03-09T17:36:46.742Z,6.40
2019-03-09T17:39:21.753Z,6.40
2019-03-09T17:41:57.289Z,6.40
2019-03-09T17:44:25.993Z,6.40
2019-03-09T17:46:54.713Z,6.40
2019-03-09T17:49:29.809Z,6.40
2019-03-09T17:51:58.520Z,6.40
2019-03-09T17:54:27.597Z,6.40
2019-03-09T17:57:03.607Z,6.40
2019-03-09T17:59:45.819Z,6.30
2019-03-09T18:02:27.363Z,6.20
2019-03-09T18:04:56.169Z,6.10
2019-03-09T18:07:24.907Z,6.10
2019-03-09T18:10:06.936Z,6.00
2019-03-09T18:12:35.627Z,5.90
2019-03-09T18:15:04.750Z,5.90
2019-03-09T18:17:40.011Z,5.90
2019-03-09T18:20:08.880Z,5.70
2019-03-09T18:22:37.615Z,5.70
2019-03-09T18:25:13.067Z,5.60
2019-03-09T18:27:41.778Z,5.60
2019-03-09T18:30:10.717Z,5.60
2019-03-09T18:32:46.364Z,5.60
2019-03-09T18:35:15.187Z,5.60
2019-03-09T18:37:56.964Z,5.50
2019-03-09T18:40:32.697Z,5.50
2019-03-09T18:43:07.808Z,5.40
2019-03-09T18:45:36.561Z,5.50
2019-03-09T18:48:05.375Z,5.40
2019-03-09T18:50:40.845Z,5.40
2019-03-09T18:53:09.579Z,5.40
2019-03-09T18:55:38.354Z,5.40
2019-03-09T18:58:13.911Z,5.50
2019-03-09T19:00:42.644Z,5.50
2019-03-09T19:03:11.364Z,5.50
2019-03-09T19:05:46.415Z,5.50
2019-03-09T19:08:15.137Z,5.50
2019-03-09T19:10:57.165Z,5.50
2019-03-09T19:13:25.972Z,5.60
2019-03-09T19:15:54.710Z,5.60
2019-03-09T19:18:29.943Z,5.60
2019-03-09T19:20:58.778Z,5.70
2019-03-09T19:23:28.011Z,5.70
2019-03-09T19:26:02.929Z,5.80
2019-03-09T19:28:31.714Z,5.80
2019-03-09T19:31:00.431Z,5.80
2019-03-09T19:33:36.119Z,5.90
2019-03-09T19:36:04.967Z,5.90
2019-03-09T19:38:46.382Z,5.90
2019-03-09T19:41:22.505Z,5.90
2019-03-09T19:43:58.400Z,5.90
2019-03-09T19:46:27.158Z,5.90
2019-03-09T19:48:55.887Z,6.00
2019-03-09T19:51:31.503Z,6.00
2019-03-09T19:54:00.282Z,6.00
2019-03-09T19:56:29.121Z,6.10
2019-03-09T19:59:04.753Z,6.20
2019-03-09T20:01:33.551Z,6.20
2019-03-09T20:04:02.291Z,6.10
2019-03-09T20:06:37.671Z,6.20
2019-03-09T20:09:07.399Z,6.20
2019-03-09T20:11:49.168Z,6.10
2019-03-09T20:14:17.965Z,6.10
2019-03-09T20:16:46.715Z,6.20
2019-03-09T20:19:21.968Z,6.30
2019-03-09T20:21:50.892Z,6.20
2019-03-09T20:24:19.697Z,6.20
2019-03-09T20:26:55.415Z,6.30
2019-03-09T20:29:24.267Z,6.30
2019-03-09T20:31:53.392Z,6.30
2019-03-09T20:34:28.990Z,6.10
2019-03-09T20:37:04.359Z,6.00
2019-03-09T20:39:46.446Z,5.90
2019-03-09T20:42:15.221Z,5.90
2019-03-09T20:44:45.030Z,5.80
2019-03-09T20:47:20.479Z,5.80
2019-03-09T20:49:49.468Z,5.80
2019-03-09T20:52:18.213Z,5.80
2019-03-09T20:54:53.338Z,5.90
2019-03-09T20:57:22.121Z,5.90
2019-03-09T20:59:51.701Z,5.90
2019-03-09T21:02:27.020Z,5.90
2019-03-09T21:04:55.839Z,5.90
2019-03-09T21:07:24.645Z,5.80
2019-03-09T21:10:00.371Z,5.70
2019-03-09T21:12:36.124Z,5.70
2019-03-09T21:15:12.124Z,5.60
2019-03-09T21:17:40.927Z,5.60
2019-03-09T21:20:09.744Z,5.50
2019-03-09T21:22:45.309Z,5.50
2019-03-09T21:25:14.249Z,5.40
2019-03-09T21:27:42.984Z,5.30
2019-03-09T21:30:18.049Z,5.30
2019-03-09T21:32:47.132Z,5.20
2019-03-09T21:35:18.490Z,5.20
2019-03-09T21:37:54.110Z,5.20
2019-03-09T21:40:29.467Z,5.20
2019-03-09T21:43:04.371Z,5.10
2019-03-09T21:45:33.093Z,5.10
2019-03-09T21:48:01.868Z,5.00
2019-03-09T21:50:37.071Z,5.10
2019-03-09T21:53:07.963Z,5.00
2019-03-09T21:55:36.684Z,4.90
2019-03-09T21:58:12.511Z,4.70
2019-03-09T22:00:41.255Z,4.80
2019-03-09T22:03:09.989Z,4.80
2019-03-09T22:05:45.639Z,4.80
2019-03-09T22:08:14.404Z,4.70
2019-03-09T22:10:43.260Z,4.70
2019-03-09T22:13:25.160Z,4.60
2019-03-09T22:15:53.881Z,4.70
2019-03-09T22:18:22.663Z,4.50
2019-03-09T22:20:58.122Z,4.60
2019-03-09T22:23:26.844Z,4.60
2019-03-09T22:25:55.572Z,4.60
2019-03-09T22:28:31.058Z,4.60
2019-03-09T22:30:59.843Z,4.60
2019-03-09T22:33:28.651Z,4.50
2019-03-09T22:36:03.915Z,4.50
2019-03-09T22:38:39.197Z,4.50
2019-03-09T22:41:21.338Z,4.50
2019-03-09T22:43:50.179Z,4.50
2019-03-09T22:46:18.959Z,4.50
2019-03-09T22:48:54.689Z,4.50
2019-03-09T22:51:23.398Z,4.40
2019-03-09T22:53:52.108Z,4.40
2019-03-09T22:56:28.004Z,4.40
2019-03-09T22:58:56.759Z,4.40
2019-03-09T23:01:25.504Z,4.30
2019-03-09T23:04:00.646Z,4.20
2019-03-09T23:06:29.404Z,4.20
2019-03-09T23:08:58.143Z,4.20
2019-03-09T23:11:33.743Z,4.20
2019-03-09T23:14:09.151Z,4.20
2019-03-09T23:16:45.653Z,4.30
2019-03-09T23:19:14.440Z,4.30
2019-03-09T23:21:43.200Z,4.30
2019-03-09T23:24:18.518Z,4.20
2019-03-09T23:26:47.260Z,4.30
2019-03-09T23:29:16.021Z,4.20
2019-03-09T23:31:52.230Z,4.10
2019-03-09T23:34:21.161Z,4.10
2019-03-09T23:36:49.961Z,4.10
2019-03-09T23:39:25.794Z,4.10
2019-03-09T23:42:01.252Z,4.10
2019-03-09T23:44:37.755Z,4.00
2019-03-09T23:47:06.930Z,4.00
2019-03-09T23:49:36.129Z,4.00
2019-03-09T23:52:11.803Z,4.00
2019-03-09T23:54:40.972Z,4.00
2019-03-09T23:57:10.265Z,4.00
2019-03-09T23:59:46.287Z,3.90
